Time;durP1;ratioP1;P1;durP2;ratioP2;P2;SDS_P1;SDS_P2;PMS_P1;PMS_P2;Temp;Humidity;BMP_temperature;BMP_pressure;BME280_temperature;BME280_humidity;BME280_pressure;Samples;Min_cycle;Max_cycle;Signal;HPM_P1;HPM_P2
2021/06/25 00:01:49;;;;;;;14.95;7.40;;;;;;;;;;5049206;28;20598;-60
2021/06/25 00:25:33;;;;;;;11.70;8.35;;;;;;;;;;5049708;28;20488;-60
2021/06/25 02:25:36;;;;;;;14.45;8.95;;;;;;;;;;5050280;28;20403;-60
2021/06/25 02:28:03;;;;;;;15.50;9.20;;;;;;;;;;5035076;28;20038;-60
2021/06/25 02:30:30;;;;;;;15.80;8.80;;;;;;;;;;5037011;28;20045;-60
2021/06/25 02:32:57;;;;;;;14.75;9.55;;;;;;;;;;5031936;28;20037;-60
2021/06/25 02:35:25;;;;;;;14.77;9.13;;;;;;;;;;5035185;28;20474;-60
2021/06/25 02:37:55;;;;;;;15.52;9.95;;;;;;;;;;5036553;28;20509;-60
2021/06/25 02:40:21;;;;;;;15.15;9.38;;;;;;;;;;5034407;28;20033;-60
2021/06/25 02:42:49;;;;;;;14.10;8.85;;;;;;;;;;5023782;28;20061;-60
2021/06/25 02:45:15;;;;;;;11.98;8.45;;;;;;;;;;5017536;28;20080;-60
2021/06/25 03:26:36;;;;;;;12.65;7.40;;;;;;;;;;5049709;28;20410;-59
2021/06/25 03:29:02;;;;;;;;;;;;;;;;;;5051498;28;20049;-59
2021/06/25 03:31:29;;;;;;;12.40;6.85;;;;;;;;;;5044786;28;19921;-60
2021/06/25 04:26:38;;;;;;;7.88;5.72;;;;;;;;;;5045449;28;20456;-60
2021/06/25 04:29:08;;;;;;;7.95;6.05;;;;;;;;;;5047134;28;20124;-60
2021/06/25 04:31:35;;;;;;;7.00;5.30;;;;;;;;;;5042895;28;20068;-60
2021/06/25 04:34:02;;;;;;;9.10;5.90;;;;;;;;;;5046713;28;20493;-60
2021/06/25 04:36:29;;;;;;;11.35;6.80;;;;;;;;;;5047698;28;20072;-60
2021/06/25 04:38:55;;;;;;;8.82;6.05;;;;;;;;;;5049701;28;20037;-60
2021/06/25 07:27:37;;;;;;;4.43;3.45;;;;;;;;;;5027518;27;20427;-59
2021/06/25 07:30:12;;;;;;;9.07;3.38;;;;;;;;;;5028387;27;20487;-59
2021/06/25 07:32:39;;;;;;;6.32;3.58;;;;;;;;;;5031018;27;20496;-60
2021/06/25 07:35:10;;;;;;;5.80;3.25;;;;;;;;;;5036900;28;20033;-60
2021/06/25 07:37:36;;;;;;;3.47;3.17;;;;;;;;;;5033757;28;20041;-60
2021/06/25 07:40:04;;;;;;;3.55;2.80;;;;;;;;;;5030791;28;20095;-60
2021/06/25 07:42:33;;;;;;;3.20;2.90;;;;;;;;;;5033171;27;20071;-60
2021/06/25 07:45:04;;;;;;;3.40;2.70;;;;;;;;;;5031379;27;20038;-60
2021/06/25 08:27:35;;;;;;;4.63;2.72;;;;;;;;;;5051943;28;21007;-60
2021/06/25 08:30:05;;;;;;;3.35;2.67;;;;;;;;;;5055051;28;20095;-60
2021/06/25 08:32:34;;;;;;;3.05;2.70;;;;;;;;;;5051926;28;20076;-60
2021/06/25 08:35:01;;;;;;;3.40;2.40;;;;;;;;;;5055792;28;20049;-60
2021/06/25 08:37:28;;;;;;;3.47;2.50;;;;;;;;;;5060601;28;20041;-60
2021/06/25 08:39:54;;;;;;;3.00;2.63;;;;;;;;;;5056127;28;20060;-60
2021/06/25 08:42:21;;;;;;;3.78;3.00;;;;;;;;;;5051881;28;20291;-60
2021/06/25 08:44:48;;;;;;;4.40;2.65;;;;;;;;;;5051384;28;20132;-60
2021/06/25 08:47:14;;;;;;;5.65;2.80;;;;;;;;;;5050182;28;20447;-60
2021/06/25 08:49:43;;;;;;;3.42;2.78;;;;;;;;;;5044844;28;20040;-60
2021/06/25 08:52:11;;;;;;;4.90;2.45;;;;;;;;;;5051884;28;20099;-60
2021/06/25 08:54:37;;;;;;;4.78;2.75;;;;;;;;;;5054109;28;20041;-60
2021/06/25 08:57:07;;;;;;;3.63;2.60;;;;;;;;;;5051810;28;20045;-60
2021/06/25 08:59:35;;;;;;;2.33;2.10;;;;;;;;;;5053553;28;20045;-60
2021/06/25 09:02:03;;;;;;;3.20;2.30;;;;;;;;;;5049018;28;20094;-60
2021/06/25 09:04:29;;;;;;;;;;;;;;;;;;5052138;28;20047;-60
2021/06/25 09:06:56;;;;;;;2.83;2.20;;;;;;;;;;5046844;28;19925;-60
2021/06/25 09:09:35;;;;;;;2.92;2.60;;;;;;;;;;5054159;28;20045;-60
2021/06/25 09:12:05;;;;;;;4.00;2.50;;;;;;;;;;5051519;28;20091;-60
2021/06/25 09:14:51;;;;;;;2.88;2.45;;;;;;;;;;5050760;28;20045;-60
2021/06/25 09:17:19;;;;;;;3.60;2.53;;;;;;;;;;5049141;28;20037;-60
2021/06/25 09:19:46;;;;;;;3.25;2.30;;;;;;;;;;5052222;28;20103;-60
2021/06/25 09:22:12;;;;;;;3.38;2.60;;;;;;;;;;5053400;28;20443;-60
2021/06/25 09:24:39;;;;;;;5.25;2.75;;;;;;;;;;5052091;28;20044;-60
2021/06/25 09:27:08;;;;;;;3.22;2.60;;;;;;;;;;5052923;28;20057;-60
2021/06/25 09:29:38;;;;;;;2.28;2.08;;;;;;;;;;5051821;28;20052;-60
2021/06/25 09:32:06;;;;;;;3.95;2.45;;;;;;;;;;5049267;28;20179;-60
2021/06/25 09:34:43;;;;;;;3.25;2.22;;;;;;;;;;5052090;28;20112;-60
2021/06/25 09:37:13;;;;;;;3.00;2.20;;;;;;;;;;5048800;28;20050;-60
2021/06/25 09:39:43;;;;;;;2.65;2.30;;;;;;;;;;5035615;28;20497;-61
2021/06/25 09:42:17;;;;;;;3.22;2.20;;;;;;;;;;5037503;28;20048;-60
2021/06/25 09:44:58;;;;;;;2.78;2.10;;;;;;;;;;5037683;28;20045;-60
2021/06/25 09:47:31;;;;;;;4.32;2.35;;;;;;;;;;5038807;28;20048;-60
2021/06/25 09:50:07;;;;;;;2.88;2.15;;;;;;;;;;5040184;28;20057;-60
2021/06/25 09:52:51;;;;;;;2.67;2.05;;;;;;;;;;5035621;28;20051;-60
2021/06/25 09:55:19;;;;;;;3.65;2.05;;;;;;;;;;5041234;28;20045;-60
2021/06/25 09:57:46;;;;;;;;;;;;;;;;;;5035350;28;20045;-60
2021/06/25 10:00:22;;;;;;;2.75;2.20;;;;;;;;;;5034772;28;20395;-60
2021/06/25 10:02:58;;;;;;;2.83;2.38;;;;;;;;;;5039459;28;20128;-60
2021/06/25 10:05:28;;;;;;;3.80;2.20;;;;;;;;;;5037687;28;20049;-60
2021/06/25 10:07:55;;;;;;;2.15;1.95;;;;;;;;;;5039639;28;20239;-60
2021/06/25 10:10:22;;;;;;;3.73;2.03;;;;;;;;;;5041020;28;20113;-60
2021/06/25 10:12:50;;;;;;;5.93;2.80;;;;;;;;;;5039993;28;20801;-60
2021/06/25 10:15:17;;;;;;;5.65;2.00;;;;;;;;;;5035871;28;20052;-60
2021/06/25 10:17:46;;;;;;;3.58;1.95;;;;;;;;;;5036153;28;20131;-58
2021/06/25 10:20:13;;;;;;;1.80;1.70;;;;;;;;;;5038058;28;20041;-58
2021/06/25 10:22:43;;;;;;;3.22;2.10;;;;;;;;;;5035628;28;20114;-58
2021/06/25 10:25:11;;;;;;;2.90;1.70;;;;;;;;;;5040909;28;20073;-58
2021/06/25 10:27:37;;;;;;;2.80;1.70;;;;;;;;;;5037604;28;20519;-58
2021/06/25 10:30:05;;;;;;;;;;;;;;;;;;5037666;28;20455;-58
2021/06/25 10:32:31;;;;;;;2.65;1.98;;;;;;;;;;5038209;28;19921;-58
2021/06/25 10:34:58;;;;;;;3.38;2.10;;;;;;;;;;5043739;28;20036;-59
2021/06/25 10:37:28;;;;;;;2.80;2.00;;;;;;;;;;5037079;28;20046;-58
2021/06/25 10:39:55;;;;;;;4.00;1.90;;;;;;;;;;5037023;28;20040;-58
2021/06/25 10:42:37;;;;;;;2.00;1.70;;;;;;;;;;5036958;28;20160;-58
2021/06/25 10:45:06;;;;;;;3.00;1.90;;;;;;;;;;5040163;28;20048;-58
2021/06/25 10:47:33;;;;;;;2.20;1.70;;;;;;;;;;5037904;28;20542;-58
2021/06/25 10:50:06;;;;;;;2.90;2.13;;;;;;;;;;5036869;28;20136;-59
2021/06/25 10:52:37;;;;;;;2.10;1.90;;;;;;;;;;5034749;28;20677;-58
2021/06/25 10:55:05;;;;;;;2.30;2.03;;;;;;;;;;5039648;28;20037;-58
2021/06/25 10:57:33;;;;;;;4.57;2.05;;;;;;;;;;5037493;28;20128;-58
2021/06/25 11:00:00;;;;;;;2.35;1.55;;;;;;;;;;5034432;28;20449;-59
2021/06/25 11:02:43;;;;;;;1.98;1.77;;;;;;;;;;5036227;28;20047;-58
2021/06/25 11:05:25;;;;;;;4.00;1.85;;;;;;;;;;5036799;28;20053;-58
2021/06/25 11:07:53;;;;;;;2.28;1.98;;;;;;;;;;5035716;28;20099;-58
2021/06/25 11:10:23;;;;;;;2.38;2.00;;;;;;;;;;5035768;28;20041;-58
2021/06/25 11:13:10;;;;;;;2.38;1.67;;;;;;;;;;5038937;28;20055;-58
2021/06/25 11:15:37;;;;;;;3.17;1.75;;;;;;;;;;5038952;28;20038;-58
2021/06/25 11:18:16;;;;;;;2.88;1.98;;;;;;;;;;5037105;28;20037;-58
2021/06/25 11:20:51;;;;;;;3.45;1.73;;;;;;;;;;5036430;28;20092;-58
2021/06/25 11:23:26;;;;;;;2.47;1.70;;;;;;;;;;5039666;28;20076;-58
2021/06/25 11:25:53;;;;;;;2.00;1.80;;;;;;;;;;5036364;28;20574;-58
2021/06/25 11:28:37;;;;;;;1.80;1.60;;;;;;;;;;5033394;28;20072;-58
2021/06/25 11:31:07;;;;;;;1.90;1.75;;;;;;;;;;5038174;28;20767;-58
2021/06/25 11:33:35;;;;;;;2.70;1.70;;;;;;;;;;5037331;28;20060;-58
2021/06/25 11:36:28;;;;;;;3.90;1.85;;;;;;;;;;5039815;28;20037;-58
2021/06/25 11:39:04;;;;;;;8.02;1.70;;;;;;;;;;5039088;28;20084;-58
2021/06/25 11:41:35;;;;;;;4.00;1.58;;;;;;;;;;5038214;28;20444;-58
2021/06/25 11:44:10;;;;;;;2.65;1.80;;;;;;;;;;5038158;28;20139;-58
2021/06/25 11:46:39;;;;;;;3.35;1.90;;;;;;;;;;5035646;28;20041;-58
2021/06/25 11:49:07;;;;;;;2.38;1.80;;;;;;;;;;5032717;28;20490;-58
2021/06/25 11:51:35;;;;;;;;;;;;;;;;;;5034492;28;20477;-58
2021/06/25 11:54:03;;;;;;;2.58;1.92;;;;;;;;;;5034287;28;20402;-59
2021/06/25 11:56:30;;;;;;;2.55;2.03;;;;;;;;;;5036925;28;20073;-59
2021/06/25 11:59:07;;;;;;;2.00;1.80;;;;;;;;;;5035077;28;20056;-58
2021/06/25 12:01:48;;;;;;;2.15;1.80;;;;;;;;;;5034283;28;20042;-58
2021/06/25 12:04:15;;;;;;;2.80;2.00;;;;;;;;;;5037744;28;20045;-58
2021/06/25 12:06:48;;;;;;;2.70;1.90;;;;;;;;;;5038240;28;20029;-58
2021/06/25 12:09:16;;;;;;;5.03;2.00;;;;;;;;;;5030205;28;20260;-59
2021/06/25 12:11:43;;;;;;;2.20;1.90;;;;;;;;;;5037037;28;20489;-59
2021/06/25 12:14:10;;;;;;;2.60;1.92;;;;;;;;;;5038137;28;20056;-59
2021/06/25 12:16:42;;;;;;;3.08;2.08;;;;;;;;;;5039744;28;20213;-58
2021/06/25 12:19:10;;;;;;;3.53;2.17;;;;;;;;;;5036137;28;20061;-58
2021/06/25 12:21:36;;;;;;;;;;;;;;;;;;5035182;28;20041;-58
2021/06/25 12:24:03;;;;;;;2.90;1.95;;;;;;;;;;5034002;28;20004;-59
2021/06/25 12:26:30;;;;;;;4.00;1.90;;;;;;;;;;5037120;28;20075;-59
2021/06/25 12:28:58;;;;;;;2.33;1.97;;;;;;;;;;5035732;28;20073;-58
2021/06/25 12:31:30;;;;;;;3.25;2.00;;;;;;;;;;5037988;28;20295;-59
2021/06/25 12:34:03;;;;;;;2.63;1.67;;;;;;;;;;5032332;28;20095;-58
2021/06/25 12:36:30;;;;;;;3.58;1.77;;;;;;;;;;5034518;28;20053;-59
2021/06/25 12:39:00;;;;;;;2.20;1.70;;;;;;;;;;5032781;28;20045;-59
2021/06/25 12:41:28;;;;;;;1.63;1.50;;;;;;;;;;5035715;28;20763;-59
2021/06/25 12:43:56;;;;;;;4.00;1.80;;;;;;;;;;5034935;28;20048;-58
2021/06/25 12:46:24;;;;;;;2.08;1.73;;;;;;;;;;5033756;28;20057;-58
2021/06/25 12:48:51;;;;;;;;;;;;;;;;;;5036621;28;20041;-59
2021/06/25 12:51:18;;;;;;;2.63;1.85;;;;;;;;;;5034394;28;19921;-59
2021/06/25 12:53:49;;;;;;;2.63;2.10;;;;;;;;;;5038381;28;20124;-58
2021/06/25 12:56:21;;;;;;;2.55;2.10;;;;;;;;;;5034456;28;20040;-59
2021/06/25 12:58:50;;;;;;;3.72;2.35;;;;;;;;;;5038133;28;20763;-59
2021/06/25 13:01:17;;;;;;;2.85;2.03;;;;;;;;;;5032803;28;20117;-59
2021/06/25 13:03:45;;;;;;;2.78;2.00;;;;;;;;;;5035781;28;20041;-59
2021/06/25 13:06:31;;;;;;;3.20;2.10;;;;;;;;;;5030761;28;20029;-58
2021/06/25 13:08:59;;;;;;;1.88;1.77;;;;;;;;;;5033331;28;20091;-58
2021/06/25 13:11:27;;;;;;;3.17;2.00;;;;;;;;;;5036608;28;20041;-59
2021/06/25 13:13:54;;;;;;;3.80;2.17;;;;;;;;;;5037407;28;20056;-59
2021/06/25 13:16:21;;;;;;;2.80;2.03;;;;;;;;;;5039964;28;20068;-59
2021/06/25 13:18:50;;;;;;;4.28;1.67;;;;;;;;;;5034840;28;20539;-58
2021/06/25 13:21:32;;;;;;;2.85;2.00;;;;;;;;;;5037468;28;20493;-59
2021/06/25 13:24:22;;;;;;;2.47;1.98;;;;;;;;;;5039257;28;20052;-59
2021/06/25 13:26:53;;;;;;;2.10;1.90;;;;;;;;;;5038995;28;20085;-59
2021/06/25 13:29:24;;;;;;;2.92;2.20;;;;;;;;;;5039271;28;20619;-58
2021/06/25 13:31:52;;;;;;;2.50;2.10;;;;;;;;;;5039105;28;20041;-59
2021/06/25 13:34:19;;;;;;;2.28;2.00;;;;;;;;;;5037454;28;20045;-59
2021/06/25 13:37:00;;;;;;;2.88;2.25;;;;;;;;;;5036012;28;20559;-58
2021/06/25 13:39:27;;;;;;;2.65;2.10;;;;;;;;;;5035279;28;20076;-59
2021/06/25 13:41:55;;;;;;;4.05;2.47;;;;;;;;;;5039635;28;20049;-59
2021/06/25 13:44:29;;;;;;;3.17;2.25;;;;;;;;;;5039096;28;20555;-58
2021/06/25 13:47:02;;;;;;;2.83;2.13;;;;;;;;;;5038250;28;20041;-59
2021/06/25 13:49:31;;;;;;;3.20;2.40;;;;;;;;;;5036532;28;20083;-59
2021/06/25 13:51:59;;;;;;;2.42;2.20;;;;;;;;;;5037627;28;20034;-59
2021/06/25 13:54:25;;;;;;;2.05;1.85;;;;;;;;;;5041134;28;20050;-59
2021/06/25 13:56:53;;;;;;;3.65;2.30;;;;;;;;;;5036253;28;20041;-59
2021/06/25 13:59:20;;;;;;;4.65;2.30;;;;;;;;;;5040884;28;20515;-58
2021/06/25 14:01:51;;;;;;;2.95;2.25;;;;;;;;;;5039063;28;20029;-59
2021/06/25 14:04:20;;;;;;;4.22;2.58;;;;;;;;;;5039977;28;20122;-59
2021/06/25 14:06:49;;;;;;;3.55;2.20;;;;;;;;;;5038600;28;20112;-59
2021/06/25 14:09:23;;;;;;;2.20;2.00;;;;;;;;;;5038481;28;20037;-59
2021/06/25 14:11:54;;;;;;;2.30;2.10;;;;;;;;;;5040610;28;20045;-59
2021/06/25 14:14:21;;;;;;;2.73;2.03;;;;;;;;;;5037998;28;20037;-59
2021/06/25 14:16:58;;;;;;;5.63;2.83;;;;;;;;;;5038027;28;20076;-58
2021/06/25 14:19:26;;;;;;;2.67;2.05;;;;;;;;;;5034820;28;20053;-59
2021/06/25 14:21:53;;;;;;;3.83;2.20;;;;;;;;;;5039006;28;20045;-59
2021/06/25 14:24:24;;;;;;;2.97;1.90;;;;;;;;;;5035597;28;20106;-59
2021/06/25 14:26:52;;;;;;;2.47;1.98;;;;;;;;;;5033520;28;20107;-59
2021/06/25 14:29:20;;;;;;;;;;;;;;;;;;5041997;28;20139;-59
2021/06/25 14:31:47;;;;;;;4.28;2.10;;;;;;;;;;5037678;28;20008;-59
2021/06/25 14:34:15;;;;;;;4.68;2.20;;;;;;;;;;5034014;28;20041;-58
2021/06/25 14:36:41;;;;;;;2.97;2.10;;;;;;;;;;5038380;28;20073;-59
2021/06/25 14:39:08;;;;;;;2.90;2.13;;;;;;;;;;5034352;28;20044;-59
2021/06/25 14:41:51;;;;;;;2.88;2.00;;;;;;;;;;5037323;28;20127;-59
2021/06/25 14:44:17;;;;;;;2.05;1.77;;;;;;;;;;5039431;28;20052;-59
2021/06/25 14:46:46;;;;;;;3.15;2.10;;;;;;;;;;5036062;28;20041;-58
2021/06/25 14:49:13;;;;;;;2.90;2.35;;;;;;;;;;5039398;28;20072;-59
2021/06/25 14:51:40;;;;;;;3.80;2.40;;;;;;;;;;5032023;28;20080;-59
2021/06/25 14:54:12;;;;;;;2.63;1.98;;;;;;;;;;5035650;28;20041;-59
2021/06/25 14:56:39;;;;;;;3.63;2.42;;;;;;;;;;5033126;28;20052;-59
2021/06/25 14:59:06;;;;;;;3.40;2.17;;;;;;;;;;5036883;28;20733;-58
2021/06/25 15:01:32;;;;;;;2.88;2.10;;;;;;;;;;5031194;28;20303;-58
2021/06/25 15:04:01;;;;;;;5.30;2.22;;;;;;;;;;5038158;28;20073;-58
2021/06/25 15:06:27;;;;;;;2.65;2.10;;;;;;;;;;5031794;28;20037;-58
2021/06/25 15:08:54;;;;;;;3.90;2.55;;;;;;;;;;5034603;28;20045;-59
2021/06/25 15:11:22;;;;;;;3.50;2.30;;;;;;;;;;5035127;28;20072;-58
2021/06/25 15:13:48;;;;;;;5.33;2.77;;;;;;;;;;5037407;28;20041;-59
2021/06/25 15:16:16;;;;;;;2.90;2.15;;;;;;;;;;5037445;28;20099;-59
2021/06/25 15:18:42;;;;;;;4.78;2.30;;;;;;;;;;5036307;28;20118;-59
2021/06/25 15:21:12;;;;;;;3.00;2.20;;;;;;;;;;5041409;28;20152;-59
2021/06/25 15:23:39;;;;;;;2.95;2.17;;;;;;;;;;5035611;28;20048;-59
2021/06/25 15:26:07;;;;;;;7.22;2.20;;;;;;;;;;5037775;28;20057;-59
2021/06/25 15:28:34;;;;;;;3.43;2.30;;;;;;;;;;5034331;28;20092;-59
2021/06/25 15:31:01;;;;;;;2.60;1.90;;;;;;;;;;5035019;28;20056;-59
2021/06/25 15:33:27;;;;;;;6.32;2.72;;;;;;;;;;5036836;28;20053;-59
2021/06/25 15:35:54;;;;;;;4.97;2.20;;;;;;;;;;5035068;28;20040;-59
2021/06/25 15:38:21;;;;;;;;;;;;;;;;;;5039759;28;20294;-59
2021/06/25 15:40:48;;;;;;;2.92;2.00;;;;;;;;;;5039499;28;19924;-59
2021/06/25 15:43:15;;;;;;;2.78;2.22;;;;;;;;;;5036273;28;20034;-59
2021/06/25 15:45:42;;;;;;;3.08;2.20;;;;;;;;;;5031914;28;20049;-59
2021/06/25 15:48:09;;;;;;;3.25;2.28;;;;;;;;;;5040227;28;20037;-59
2021/06/25 15:50:35;;;;;;;8.18;2.50;;;;;;;;;;5041911;28;20029;-59
2021/06/25 15:53:07;;;;;;;4.72;2.25;;;;;;;;;;5037058;28;20566;-58
2021/06/25 15:55:35;;;;;;;3.23;2.37;;;;;;;;;;5036449;28;20078;-58
2021/06/25 15:58:01;;;;;;;7.90;2.50;;;;;;;;;;5032787;28;20053;-58
2021/06/25 16:00:28;;;;;;;3.42;2.25;;;;;;;;;;5033824;28;20037;-59
2021/06/25 16:02:56;;;;;;;4.30;2.53;;;;;;;;;;5041682;28;20040;-59
2021/06/25 16:05:23;;;;;;;2.67;2.38;;;;;;;;;;5029065;28;20128;-58
2021/06/25 16:07:50;;;;;;;3.47;2.13;;;;;;;;;;5036645;28;20045;-59
2021/06/25 16:10:19;;;;;;;;;;;;;;;;;;5033357;28;20061;-59
2021/06/25 16:12:46;;;;;;;2.97;2.20;;;;;;;;;;5032305;28;19921;-59
2021/06/25 16:15:13;;;;;;;4.30;2.00;;;;;;;;;;5036479;28;20033;-58
2021/06/25 16:17:40;;;;;;;3.78;2.20;;;;;;;;;;5035480;28;20091;-58
2021/06/25 16:20:07;;;;;;;4.93;2.60;;;;;;;;;;5036573;28;20033;-59
2021/06/25 16:22:34;;;;;;;3.17;2.22;;;;;;;;;;5033558;28;20045;-59
2021/06/25 16:25:01;;;;;;;4.03;1.90;;;;;;;;;;5034008;28;20409;-58
2021/06/25 16:27:30;;;;;;;2.70;2.13;;;;;;;;;;5034666;28;20785;-59
2021/06/25 16:29:57;;;;;;;3.45;2.45;;;;;;;;;;5034840;28;20046;-58
2021/06/25 16:32:23;;;;;;;3.65;2.45;;;;;;;;;;5035928;28;20089;-59
2021/06/25 16:34:50;;;;;;;2.97;2.22;;;;;;;;;;5039788;28;20049;-58
2021/06/25 16:37:17;;;;;;;3.78;2.10;;;;;;;;;;5034398;28;20037;-58
2021/06/25 16:39:44;;;;;;;2.63;1.98;;;;;;;;;;5037714;28;20037;-59
2021/06/25 16:42:13;;;;;;;3.33;2.30;;;;;;;;;;5035012;28;20107;-59
2021/06/25 16:44:40;;;;;;;2.20;2.00;;;;;;;;;;5034722;28;20049;-59
2021/06/25 16:47:07;;;;;;;2.50;2.13;;;;;;;;;;5032696;28;20037;-58
2021/06/25 16:49:33;;;;;;;2.57;2.27;;;;;;;;;;5041037;28;20041;-59
2021/06/25 16:52:00;;;;;;;4.85;2.28;;;;;;;;;;5039006;28;20128;-59
2021/06/25 16:54:27;;;;;;;2.03;1.88;;;;;;;;;;5041208;28;20056;-58
2021/06/25 16:56:53;;;;;;;4.40;2.20;;;;;;;;;;5039506;28;21174;-58
2021/06/25 16:59:23;;;;;;;3.03;2.30;;;;;;;;;;5038440;28;20296;-59
2021/06/25 17:01:49;;;;;;;5.07;2.30;;;;;;;;;;5033570;28;20099;-58
2021/06/25 17:04:16;;;;;;;2.97;2.33;;;;;;;;;;5041472;28;20037;-58
2021/06/25 17:06:46;;;;;;;3.38;2.30;;;;;;;;;;5039439;28;20046;-58
2021/06/25 17:09:12;;;;;;;3.95;2.42;;;;;;;;;;5035652;28;20061;-58
2021/06/25 17:11:39;;;;;;;4.60;2.40;;;;;;;;;;5038019;28;20044;-58
2021/06/25 17:14:06;;;;;;;2.30;1.92;;;;;;;;;;5036382;28;20055;-58
2021/06/25 17:16:32;;;;;;;2.63;2.15;;;;;;;;;;5037633;28;20045;-58
2021/06/25 17:18:59;;;;;;;2.92;2.05;;;;;;;;;;5038007;28;20462;-59
2021/06/25 21:31:37;;;;;;;10.88;6.82;;;;;;;;;;5118397;27;20353;-60
2021/06/25 21:34:04;;;;;;;;;;;;;;;;;;5115697;27;20054;-60
2021/06/25 22:22:34;;;;;;;20.00;9.05;;;;;;;;;;5084203;27;20118;-60
2021/06/25 22:25:02;;;;;;;12.07;8.65;;;;;;;;;;5074390;28;20492;-60
2021/06/25 22:27:29;;;;;;;13.10;9.70;;;;;;;;;;5077223;28;20038;-60
2021/06/25 22:29:55;;;;;;;13.47;9.30;;;;;;;;;;5079127;27;20298;-60
2021/06/25 22:32:22;;;;;;;11.83;9.33;;;;;;;;;;5080983;28;20048;-60
2021/06/25 22:34:50;;;;;;;14.27;9.23;;;;;;;;;;5081385;28;20067;-60
2021/06/25 22:37:17;;;;;;;14.85;9.60;;;;;;;;;;5082779;28;20139;-60
2021/06/25 22:39:44;;;;;;;14.30;10.48;;;;;;;;;;5079247;28;20051;-60
2021/06/25 22:42:11;;;;;;;14.88;9.63;;;;;;;;;;5078515;28;20044;-60
2021/06/25 22:44:37;;;;;;;15.50;10.07;;;;;;;;;;5078752;28;20040;-60
2021/06/25 22:47:04;;;;;;;17.42;9.80;;;;;;;;;;5080930;28;20041;-60
2021/06/25 22:49:31;;;;;;;16.90;9.48;;;;;;;;;;5077960;28;20111;-60
2021/06/25 22:51:59;;;;;;;16.85;10.15;;;;;;;;;;5082382;28;20494;-61
2021/06/25 22:54:29;;;;;;;14.85;9.23;;;;;;;;;;5075684;28;20527;-60
2021/06/25 22:56:56;;;;;;;14.23;9.60;;;;;;;;;;5080832;28;20050;-60
2021/06/25 23:22:38;;;;;;;15.85;10.10;;;;;;;;;;5076956;28;20125;-60
2021/06/25 23:25:05;;;;;;;17.85;11.60;;;;;;;;;;5064666;28;20052;-60
2021/06/25 23:27:31;;;;;;;16.10;10.93;;;;;;;;;;5064697;28;20045;-60
